Portada
METAR-TAF:

METAR-TAF

Aeroports :

Medan, Sumatra Septentrional, Indonèsia

latitud: 03-34N, longitud: 098-41E, altitud: 25 m

METAR: manca

Hora: 16:43 (09:43 UTC)

Pronòstic

L'informe es va fer fa 4 hores i 43 minuts, a les 05:00 UTC
Pronòstic vàlid del 15 a les 06 UTC al 16 a les 06 UTC
Vent 10 kt del Nord/Nord-Est
Visibilitat: 9000 m
Núvols disperses a una alçada de 1700 ft
Evolucionant progressivament
l' 15 a les 10 UTC al 15 a les 12 UTC
Vent 5 kt amb direcció variable
Visibilitat: 4000 m
Escasses núvols a una alçada de 1600 ft, Cumulonimbus.
Núvols disperses a una alçada de 1800 ft
calitja
Temporalment
l' 15 a les 12 UTC al 15 a les 16 UTC
tempesta, pluja

TAF: WIMM 150500Z 1506/1606 03010KT 9000 SCT017 BECMG 1510/1512 VRB05KT 4000 HZ FEW016CB SCT018 TEMPO 1512/1516 -TSRA

Observacions i pronòstics meteorològics de més de 4000 aeroports (METAR i TAF).

Les estacions disponibles són els punts grocs i vermells al mapa.

Posi el ratolí al punt desitjat per veure el nom de l'estació.

Feu clic per veure les observacions i els pronòstics meteorològics.

Per canviar el mapa: feu clic els botons verds amb una creu de color negre per apropar; al botó verd amb un guió per allunyar la imatge; o en les fletxes verdes per a mapes adjacents.


METAR-TAF: